createdAt,value
2022-12-25T00:01:44.425Z,100280.38
2022-12-25T00:06:47.252Z,100279.23
2022-12-25T00:11:50.101Z,100279.20
2022-12-25T00:16:52.960Z,100281.52
2022-12-25T00:21:55.776Z,100283.95
2022-12-25T00:26:58.580Z,100287.52
2022-12-25T00:32:01.525Z,100288.31
2022-12-25T00:37:04.644Z,100289.16
2022-12-25T00:42:19.452Z,100297.25
2022-12-25T00:47:22.415Z,100304.33
2022-12-25T00:52:25.251Z,100312.85
2022-12-25T00:57:28.060Z,100314.06
2022-12-25T01:02:31.052Z,100323.70
2022-12-25T01:07:34.036Z,100336.07
2022-12-25T01:12:40.661Z,100342.66
2022-12-25T01:17:44.166Z,100351.31
2022-12-25T01:22:47.488Z,100356.73
2022-12-25T01:27:50.289Z,100353.47
2022-12-25T01:32:53.070Z,100345.02
2022-12-25T01:37:55.903Z,100359.70
2022-12-25T01:42:58.712Z,100367.88
2022-12-25T01:48:06.068Z,100360.64
2022-12-25T01:53:09.371Z,100350.67
2022-12-25T01:58:12.318Z,100348.61
2022-12-25T02:03:15.312Z,100343.35
2022-12-25T02:08:20.748Z,100336.50
2022-12-25T02:13:23.518Z,100344.63
2022-12-25T02:18:51.141Z,100360.16
2022-12-25T02:24:28.240Z,100364.97
2022-12-25T02:29:42.839Z,100368.04
2022-12-25T02:35:13.526Z,100379.19
2022-12-25T02:40:21.186Z,100379.72
2022-12-25T02:46:19.257Z,100375.40
2022-12-25T02:51:45.880Z,100375.94
2022-12-25T02:57:08.816Z,100373.09
2022-12-25T03:02:31.588Z,100375.02
2022-12-25T03:07:39.667Z,100381.19
2022-12-25T03:12:53.728Z,100378.89
2022-12-25T03:18:00.246Z,100385.86
2022-12-25T03:23:22.472Z,100387.88
2022-12-25T03:28:25.489Z,100385.41
2022-12-25T03:33:47.164Z,100377.30
2022-12-25T03:39:21.289Z,100380.43
2022-12-25T03:44:51.443Z,100381.70
2022-12-25T03:50:23.788Z,100381.05
2022-12-25T03:55:59.429Z,100384.69
2022-12-25T04:01:21.113Z,100387.83
2022-12-25T04:06:42.477Z,100392.45
2022-12-25T04:12:03.966Z,100393.34
2022-12-25T04:17:32.670Z,100394.07
2022-12-25T04:22:53.754Z,100388.09
2022-12-25T04:28:20.875Z,100390.02
2022-12-25T04:33:42.077Z,100400.79
2022-12-25T04:38:44.868Z,100409.82
2022-12-25T04:43:47.866Z,100401.92
2022-12-25T04:48:50.670Z,100396.41
2022-12-25T04:53:53.948Z,100398.61
2022-12-25T04:58:56.732Z,100400.29
2022-12-25T05:03:59.916Z,100397.36
2022-12-25T05:09:03.270Z,100403.86
2022-12-25T05:14:06.283Z,100410.13
2022-12-25T05:19:09.330Z,100406.80
2022-12-25T05:24:12.191Z,100411.89
2022-12-25T05:29:15.139Z,100414.76
2022-12-25T05:34:17.959Z,100429.11
2022-12-25T05:39:20.746Z,100437.59
2022-12-25T05:44:23.802Z,100438.77
2022-12-25T05:49:26.653Z,100439.11
2022-12-25T05:54:29.505Z,100447.27
2022-12-25T05:59:33.576Z,100450.31
2022-12-25T06:04:36.741Z,100445.64
2022-12-25T06:09:39.606Z,100449.89
2022-12-25T06:14:42.440Z,100456.39
2022-12-25T06:19:45.293Z,100462.52
2022-12-25T06:24:48.140Z,100462.48
2022-12-25T06:29:51.202Z,100476.41
2022-12-25T06:34:54.029Z,100479.92
2022-12-25T06:39:56.840Z,100484.80
2022-12-25T06:44:59.892Z,100495.98
2022-12-25T06:50:02.724Z,100500.70
2022-12-25T06:55:05.905Z,100509.65
2022-12-25T07:00:10.720Z,100529.77
2022-12-25T07:05:13.689Z,100544.80
2022-12-25T07:10:16.631Z,100547.96
2022-12-25T07:15:19.423Z,100552.17
2022-12-25T07:20:22.439Z,100559.47
2022-12-25T07:25:25.212Z,100564.10
2022-12-25T07:30:29.216Z,100569.92
2022-12-25T07:35:32.032Z,100582.05
2022-12-25T07:40:35.567Z,100584.70
2022-12-25T07:45:39.289Z,100592.31
2022-12-25T07:50:42.125Z,100598.87
2022-12-25T07:55:44.904Z,100595.48
2022-12-25T08:00:47.832Z,100604.66
2022-12-25T08:05:50.755Z,100603.35
2022-12-25T08:10:53.522Z,100609.89
2022-12-25T08:16:01.148Z,100621.00
2022-12-25T08:21:06.808Z,100626.84
2022-12-25T08:26:13.639Z,100632.53
2022-12-25T08:31:20.464Z,100641.27
2022-12-25T08:36:24.390Z,100641.87
2022-12-25T08:41:27.721Z,100641.81
2022-12-25T08:46:30.865Z,100642.54
2022-12-25T08:51:34.580Z,100651.83
2022-12-25T08:56:37.423Z,100655.11
2022-12-25T09:01:40.252Z,100654.64
2022-12-25T09:06:43.233Z,100647.89
2022-12-25T09:11:46.048Z,100647.63
2022-12-25T09:16:51.595Z,100648.07
2022-12-25T09:21:54.508Z,100650.46
2022-12-25T09:26:57.304Z,100654.31
2022-12-25T09:32:00.262Z,100654.63
2022-12-25T09:37:03.763Z,100652.98
2022-12-25T09:42:20.054Z,100653.44
2022-12-25T09:47:27.995Z,100657.67
2022-12-25T09:52:53.127Z,100661.52
2022-12-25T09:58:01.675Z,100663.65
2022-12-25T10:03:23.205Z,100656.21
2022-12-25T10:08:31.858Z,100668.11
2022-12-25T10:13:37.648Z,100670.54
2022-12-25T10:18:59.043Z,100663.61
2022-12-25T10:24:07.976Z,100662.22
2022-12-25T10:29:16.827Z,100669.98
2022-12-25T10:34:19.853Z,100678.90
2022-12-25T10:39:26.269Z,100672.12
2022-12-25T10:44:29.221Z,100655.39
2022-12-25T10:49:35.945Z,100653.79
2022-12-25T10:54:38.762Z,100652.91
2022-12-25T10:59:49.655Z,100648.02
2022-12-25T11:05:09.742Z,100655.06
2022-12-25T11:10:24.074Z,100655.55
2022-12-25T11:15:44.770Z,100655.38
2022-12-25T11:20:50.436Z,100655.51
2022-12-25T11:26:04.137Z,100654.44
2022-12-25T11:31:13.281Z,100665.66
2022-12-25T11:36:23.049Z,100665.81
2022-12-25T11:41:32.720Z,100670.83
2022-12-25T11:46:45.449Z,100676.83
2022-12-25T11:51:52.044Z,100681.61
2022-12-25T11:57:00.140Z,100685.13
2022-12-25T12:02:21.894Z,100688.96
2022-12-25T12:07:29.314Z,100691.44
2022-12-25T12:12:55.048Z,100694.27
2022-12-25T12:18:28.779Z,100688.60
2022-12-25T12:23:35.929Z,100686.27
2022-12-25T12:28:46.319Z,100675.86
2022-12-25T12:33:55.047Z,100668.70
2022-12-25T12:38:59.148Z,100664.29
2022-12-25T12:44:05.247Z,100659.18
2022-12-25T12:49:22.268Z,100660.64
2022-12-25T12:54:27.942Z,100668.66
2022-12-25T12:59:46.968Z,100663.60
2022-12-25T13:05:05.874Z,100664.60
2022-12-25T13:10:13.751Z,100667.52
2022-12-25T13:15:16.610Z,100678.02
2022-12-25T13:20:55.285Z,100684.04
2022-12-25T13:26:14.858Z,100685.82
2022-12-25T13:31:20.886Z,100683.19
2022-12-25T13:36:24.971Z,100673.46
2022-12-25T13:41:59.379Z,100675.98
2022-12-25T13:47:27.708Z,100679.34
2022-12-25T13:52:38.093Z,100679.61
2022-12-25T13:58:11.216Z,100684.16
2022-12-25T14:03:37.328Z,100684.89
2022-12-25T14:08:40.313Z,100679.40
2022-12-25T14:13:45.300Z,100674.52
2022-12-25T14:18:53.943Z,100674.77
2022-12-25T14:23:57.425Z,100670.23
2022-12-25T14:29:11.047Z,100674.92
2022-12-25T14:34:22.088Z,100686.27
2022-12-25T14:39:35.542Z,100700.90
2022-12-25T14:44:40.121Z,100708.13
2022-12-25T14:49:43.637Z,100721.57
2022-12-25T14:55:07.825Z,100724.70
2022-12-25T15:00:32.437Z,100726.27
2022-12-25T15:05:36.779Z,100724.23
2022-12-25T15:16:14.405Z,100717.34
2022-12-25T15:21:20.199Z,100707.58
2022-12-25T15:26:23.227Z,100709.98
2022-12-25T15:31:30.480Z,100715.87
2022-12-25T15:36:34.310Z,100707.48
2022-12-25T15:42:13.877Z,100703.88
2022-12-25T15:47:20.307Z,100691.16
2022-12-25T15:52:23.154Z,100675.91
2022-12-25T15:57:26.449Z,100669.09
2022-12-25T16:02:29.492Z,100665.71
2022-12-25T16:07:33.681Z,100666.98
2022-12-25T16:12:36.509Z,100703.05
2022-12-25T16:17:39.680Z,100711.45
2022-12-25T16:22:42.541Z,100708.15
2022-12-25T16:27:45.801Z,100703.34
2022-12-25T16:32:50.275Z,100712.61
2022-12-25T16:37:53.086Z,100710.24
2022-12-25T16:42:56.358Z,100710.06
2022-12-25T16:47:59.196Z,100704.54
2022-12-25T16:53:02.070Z,100700.46
2022-12-25T16:58:06.231Z,100707.35
2022-12-25T17:03:09.160Z,100692.59
2022-12-25T17:08:12.061Z,100689.84
2022-12-25T17:13:14.859Z,100699.30
2022-12-25T17:18:21.882Z,100700.35
2022-12-25T17:23:24.783Z,100693.99
2022-12-25T17:28:27.657Z,100684.59
2022-12-25T17:33:30.749Z,100685.98
2022-12-25T17:38:34.932Z,100681.52
2022-12-25T17:43:38.519Z,100676.73
2022-12-25T17:48:41.909Z,100675.31
2022-12-25T17:53:47.439Z,100676.66
2022-12-25T17:58:52.358Z,100675.95
2022-12-25T18:03:55.464Z,100674.36
2022-12-25T18:08:58.428Z,100669.52
2022-12-25T18:14:04.079Z,100666.59
2022-12-25T18:19:07.050Z,100665.89
2022-12-25T18:24:10.258Z,100664.14
2022-12-25T18:29:13.067Z,100654.15
2022-12-25T18:34:15.948Z,100644.35
2022-12-25T18:39:19.244Z,100645.02
2022-12-25T18:44:22.071Z,100647.76
2022-12-25T18:49:24.907Z,100644.98
2022-12-25T18:54:27.728Z,100646.82
2022-12-25T18:59:31.250Z,100643.53
2022-12-25T19:04:34.535Z,100638.67
2022-12-25T19:09:37.804Z,100634.85
2022-12-25T19:14:47.691Z,100617.83
2022-12-25T19:19:51.165Z,100614.17
2022-12-25T19:24:54.035Z,100609.85
2022-12-25T19:29:56.831Z,100603.99
2022-12-25T19:35:04.426Z,100597.64
2022-12-25T19:40:07.921Z,100596.95
2022-12-25T19:45:11.184Z,100587.29
2022-12-25T19:50:14.095Z,100575.92
2022-12-25T19:55:20.191Z,100573.17
2022-12-25T20:00:23.033Z,100570.77
2022-12-25T20:05:25.903Z,100574.58
2022-12-25T20:10:28.723Z,100585.32
2022-12-25T20:15:31.553Z,100590.48
2022-12-25T20:20:34.417Z,100580.67
2022-12-25T20:25:43.431Z,100578.25
2022-12-25T20:30:46.278Z,100579.57
2022-12-25T20:35:49.557Z,100579.33
2022-12-25T20:41:26.106Z,100582.64
2022-12-25T20:46:24.859Z,100584.23
2022-12-25T20:51:28.266Z,100579.84
2022-12-25T20:56:31.231Z,100563.80
2022-12-25T21:01:34.178Z,100567.90
2022-12-25T21:06:37.081Z,100550.70
2022-12-25T21:11:39.972Z,100535.05
2022-12-25T21:16:44.445Z,100534.50
2022-12-25T21:21:50.136Z,100527.46
2022-12-25T21:26:52.942Z,100523.14
2022-12-25T21:32:14.451Z,100505.73
2022-12-25T21:37:17.308Z,100497.27
2022-12-25T21:42:20.107Z,100481.25
2022-12-25T21:47:22.890Z,100477.94
2022-12-25T21:52:25.734Z,100482.55
2022-12-25T21:57:28.508Z,100480.98
2022-12-25T22:02:31.896Z,100471.99
2022-12-25T22:07:35.443Z,100460.96
2022-12-25T22:12:56.503Z,100464.86
2022-12-25T22:18:17.710Z,100447.48
2022-12-25T22:23:20.467Z,100430.33
2022-12-25T22:28:23.284Z,100428.13
2022-12-25T22:33:28.076Z,100411.43
2022-12-25T22:38:31.373Z,100398.20
2022-12-25T22:44:14.540Z,100384.83
2022-12-25T22:48:57.327Z,100378.27
2022-12-25T22:54:03.527Z,100370.13
2022-12-25T22:59:07.027Z,100353.73
2022-12-25T23:04:11.165Z,100346.28
2022-12-25T23:09:22.098Z,100346.70
2022-12-25T23:14:39.230Z,100342.13
2022-12-25T23:20:13.682Z,100338.90
2022-12-25T23:25:35.133Z,100322.16
2022-12-25T23:30:37.982Z,100304.02
2022-12-25T23:35:40.829Z,100306.89
2022-12-25T23:40:43.623Z,100322.48
2022-12-25T23:45:46.453Z,100329.84
2022-12-25T23:50:49.298Z,100326.34
2022-12-25T23:55:55.782Z,100325.89
